Time;durP1;ratioP1;P1;durP2;ratioP2;P2;SDS_P1;SDS_P2;PMS_P1;PMS_P2;Temp;Humidity;BMP_temperature;BMP_pressure;BME280_temperature;BME280_humidity;BME280_pressure;Samples;Min_cycle;Max_cycle;Signal;HPM_P1;HPM_P2
2021/12/21 00:00:19;;;;;;;18.48;8.35;;;-0.60;99.90;;;;;;5011458;28;20490;-81
2021/12/21 00:02:47;;;;;;;12.32;6.82;;;-0.70;99.90;;;;;;4995557;28;20042;-81
2021/12/21 00:05:20;;;;;;;13.38;7.32;;;-0.70;99.90;;;;;;4994917;28;20121;-81
2021/12/21 00:07:49;;;;;;;18.63;8.30;;;-1.20;99.90;;;;;;4995410;28;20053;-81
2021/12/21 00:10:16;;;;;;;23.00;7.80;;;-0.90;99.90;;;;;;5012052;28;20393;-81
2021/12/21 00:25:40;;;;;;;15.35;7.90;;;1.00;99.90;;;;;;5011631;28;20057;-81
2021/12/21 00:28:06;;;;;;;13.75;7.95;;;-0.20;99.90;;;;;;5010909;28;20037;-81
2021/12/21 00:30:32;;;;;;;15.57;7.53;;;-0.80;99.90;;;;;;5011002;28;20042;-81
2021/12/21 00:32:57;;;;;;;12.60;6.40;;;-1.00;99.90;;;;;;4995223;28;20054;-82
2021/12/21 00:35:23;;;;;;;13.30;8.23;;;-0.80;99.90;;;;;;4993896;28;20038;-81
2021/12/21 00:37:49;;;;;;;14.95;7.30;;;-0.80;99.90;;;;;;4995006;28;20193;-81
2021/12/21 00:40:15;;;;;;;14.93;6.90;;;-0.90;99.90;;;;;;4995322;28;20034;-81
2021/12/21 00:42:40;;;;;;;15.52;7.75;;;-0.90;99.90;;;;;;4994080;28;20041;-81
2021/12/21 00:45:06;;;;;;;12.93;7.32;;;-0.90;99.90;;;;;;4994782;28;20382;-81
2021/12/21 00:47:34;;;;;;;16.45;6.57;;;-2.00;99.90;;;;;;4993633;28;20130;-81
2021/12/21 00:50:02;;;;;;;12.45;7.03;;;-1.00;99.90;;;;;;4994742;28;20386;-81
2021/12/21 00:52:29;;;;;;;16.05;7.03;;;-1.20;99.90;;;;;;4994579;28;20034;-81
2021/12/21 00:54:54;;;;;;;11.80;6.32;;;-0.90;99.90;;;;;;4993602;28;20141;-82
2021/12/21 00:57:20;;;;;;;17.60;6.35;;;-0.90;99.90;;;;;;4994833;28;20117;-81
2021/12/21 00:59:46;;;;;;;12.15;7.03;;;1.50;99.90;;;;;;5011219;28;20593;-81
2021/12/21 01:02:12;;;;;;;12.07;6.60;;;-1.30;99.90;;;;;;5010520;28;20050;-81
2021/12/21 01:04:45;;;;;;;12.10;6.20;;;1.10;99.90;;;;;;5010143;28;20050;-81
2021/12/21 01:12:43;;;;;;;15.00;6.32;;;-1.00;99.90;;;;;;5010712;28;20105;-81
2021/12/21 01:16:03;;;;;;;12.73;5.60;;;-1.00;99.90;;;;;;5004741;28;20046;-81
2021/12/21 01:18:10;;;;;;;12.23;5.50;;;-0.80;99.90;;;;;;5003305;28;20101;-81
2021/12/21 01:20:40;;;;;;;9.40;5.97;;;-1.10;99.90;;;;;;5010411;28;20081;-81
2021/12/21 01:26:06;;;;;;;9.38;4.93;;;0.20;99.90;;;;;;5002375;28;20049;-81
2021/12/21 01:36:24;;;;;;;7.85;4.75;;;-1.30;99.90;;;;;;5011434;28;20042;-81
2021/12/21 01:38:59;;;;;;;11.15;5.57;;;-1.40;99.90;;;;;;5009527;28;20042;-81
2021/12/21 01:44:28;;;;;;;8.25;4.85;;;-1.20;99.90;;;;;;5009531;28;20046;-81
2021/12/21 01:52:07;;;;;;;12.18;4.78;;;-1.50;99.90;;;;;;5043274;28;20406;-81
2021/12/21 01:54:34;;;;;;;7.50;4.13;;;-1.20;99.90;;;;;;5017986;28;20050;-81
2021/12/21 01:56:59;;;;;;;7.85;4.50;;;-1.20;99.90;;;;;;5010527;28;20041;-81
2021/12/21 01:59:25;;;;;;;10.18;5.00;;;-0.50;99.90;;;;;;5009385;28;20057;-81
2021/12/21 02:01:51;;;;;;;12.07;5.97;;;-1.20;99.90;;;;;;5010391;28;20044;-81
2021/12/21 02:04:17;;;;;;;9.40;5.05;;;-1.20;99.90;;;;;;4993322;28;20042;-81
2021/12/21 02:06:44;;;;;;;11.95;5.43;;;-1.20;99.90;;;;;;4993284;28;20050;-81
2021/12/21 02:09:11;;;;;;;7.35;5.22;;;-1.20;99.90;;;;;;5010058;28;20081;-81
2021/12/21 02:11:39;;;;;;;10.65;4.68;;;-1.30;99.90;;;;;;5009715;28;20050;-81
2021/12/21 02:14:08;;;;;;;8.50;4.97;;;-1.30;99.90;;;;;;5009084;28;20147;-81
2021/12/21 02:16:44;;;;;;;9.70;4.28;;;-1.30;99.90;;;;;;5009790;28;20042;-81
2021/12/21 02:19:26;;;;;;;9.75;4.78;;;-1.20;99.90;;;;;;4973891;28;20393;-81
2021/12/21 02:21:55;;;;;;;9.32;4.95;;;-0.50;99.90;;;;;;4993245;28;20208;-81
2021/12/21 02:24:27;;;;;;;10.63;4.32;;;-0.50;99.90;;;;;;5010041;28;20168;-81
2021/12/21 02:27:06;;;;;;;10.05;4.97;;;0.70;99.90;;;;;;4992711;28;20046;-81
2021/12/21 02:29:35;;;;;;;7.05;3.80;;;-1.40;99.90;;;;;;5009485;28;20371;-81
2021/12/21 02:32:00;;;;;;;8.63;4.30;;;-1.40;99.90;;;;;;5010124;28;20048;-81
2021/12/21 02:34:26;;;;;;;13.23;4.40;;;-1.50;99.90;;;;;;5008810;28;20034;-81
2021/12/21 02:36:54;;;;;;;8.57;4.97;;;-1.80;99.90;;;;;;4995974;28;20046;-81
2021/12/21 02:39:21;;;;;;;11.90;4.35;;;-1.40;99.90;;;;;;4996993;28;20445;-81
2021/12/21 02:41:46;;;;;;;8.90;4.78;;;-1.40;99.90;;;;;;5012836;28;20474;-82
2021/12/21 02:44:13;;;;;;;10.30;5.20;;;-1.80;99.90;;;;;;5013762;28;20048;-81
2021/12/21 02:46:40;;;;;;;8.15;4.60;;;-1.40;99.90;;;;;;5013071;28;20505;-81
2021/12/21 02:49:07;;;;;;;8.73;4.55;;;-1.30;99.90;;;;;;5012861;28;20505;-81
2021/12/21 02:51:33;;;;;;;11.27;4.85;;;-1.20;99.90;;;;;;4996429;28;20096;-81
2021/12/21 02:53:58;;;;;;;11.10;4.55;;;0.50;99.90;;;;;;4996256;28;20037;-81
2021/12/21 02:56:24;;;;;;;10.27;5.25;;;-1.40;99.90;;;;;;4997133;28;20030;-81
2021/12/21 02:58:50;;;;;;;9.35;4.68;;;-1.60;99.90;;;;;;5013009;28;20038;-81
2021/12/21 03:01:16;;;;;;;10.35;4.35;;;-1.40;99.90;;;;;;5012694;28;20080;-81
2021/12/21 03:03:42;;;;;;;10.32;4.75;;;-1.40;99.90;;;;;;5012785;28;20118;-81
2021/12/21 03:06:13;;;;;;;9.38;4.25;;;-1.30;99.90;;;;;;5013167;28;20132;-81
2021/12/21 03:08:45;;;;;;;6.10;4.25;;;-1.50;99.90;;;;;;4995225;28;20054;-81
2021/12/21 03:11:35;;;;;;;8.95;4.45;;;0.00;99.90;;;;;;5013216;28;20056;-81
2021/12/21 03:14:08;;;;;;;12.93;5.15;;;-1.00;99.90;;;;;;5046043;28;20050;-81
2021/12/21 03:16:37;;;;;;;9.40;4.40;;;-1.20;99.90;;;;;;5003596;28;20508;-81
2021/12/21 03:19:05;;;;;;;10.75;4.97;;;-2.00;99.90;;;;;;5012880;28;20124;-81
2021/12/21 03:21:32;;;;;;;7.43;4.22;;;-1.70;99.90;;;;;;4996248;28;20070;-82
2021/12/21 03:23:58;;;;;;;9.02;4.45;;;-1.60;99.90;;;;;;4987984;28;20172;-81
2021/12/21 03:26:24;;;;;;;10.98;4.55;;;-0.40;99.90;;;;;;5012680;28;20030;-81
2021/12/21 03:28:50;;;;;;;5.68;4.50;;;0.50;99.90;;;;;;5012219;28;20046;-81
2021/12/21 03:31:16;;;;;;;11.75;4.80;;;-1.60;99.90;;;;;;5012107;28;20041;-81
2021/12/21 03:33:42;;;;;;;7.30;4.43;;;-1.60;99.90;;;;;;5012212;28;20041;-81
2021/12/21 03:36:08;;;;;;;8.98;4.57;;;-1.60;99.90;;;;;;5012855;28;20505;-81
2021/12/21 03:38:35;;;;;;;9.02;3.92;;;-1.60;99.90;;;;;;5011191;28;20108;-81
2021/12/21 03:41:05;;;;;;;13.02;4.40;;;-1.30;99.90;;;;;;4996312;28;20123;-81
2021/12/21 03:43:31;;;;;;;8.52;4.32;;;;;;;;;;5011304;28;20507;-81
2021/12/21 03:46:08;;;;;;;8.07;4.43;;;-1.60;99.90;;;;;;4996083;28;20057;-81
2021/12/21 03:48:34;;;;;;;7.20;3.85;;;-1.70;99.90;;;;;;5011807;28;20050;-81
2021/12/21 03:51:00;;;;;;;4.47;3.78;;;-1.20;99.90;;;;;;5013150;28;20038;-81
2021/12/21 03:53:26;;;;;;;8.80;4.22;;;-1.70;99.90;;;;;;5012176;28;20518;-81
2021/12/21 03:56:03;;;;;;;8.57;4.78;;;-1.70;99.90;;;;;;4995741;28;20054;-81
2021/12/21 03:58:29;;;;;;;6.00;3.92;;;-1.50;99.90;;;;;;5011090;28;20081;-81
2021/12/21 04:00:55;;;;;;;10.85;4.20;;;-1.90;99.90;;;;;;5012155;28;20064;-81
2021/12/21 04:03:20;;;;;;;8.10;4.30;;;-1.40;99.90;;;;;;5011683;28;20485;-81
2021/12/21 04:05:46;;;;;;;6.75;4.10;;;-2.10;99.90;;;;;;5012509;28;20371;-81
2021/12/21 04:08:12;;;;;;;10.60;4.72;;;-1.70;99.90;;;;;;5012540;28;20129;-81
2021/12/21 04:10:37;;;;;;;9.50;4.35;;;-1.80;99.90;;;;;;5012767;28;20512;-81
2021/12/21 04:13:03;;;;;;;7.50;4.00;;;-1.10;99.90;;;;;;4994981;28;20397;-81
2021/12/21 04:15:31;;;;;;;7.30;4.43;;;-1.80;99.90;;;;;;5011501;28;20093;-81
2021/12/21 04:17:57;;;;;;;4.88;3.50;;;-1.10;99.90;;;;;;5011542;28;20077;-81
2021/12/21 04:20:23;;;;;;;8.65;4.55;;;-0.50;99.90;;;;;;5011296;28;20077;-81
2021/12/21 04:22:49;;;;;;;14.38;4.97;;;-2.20;99.90;;;;;;5011469;28;20486;-81
2021/12/21 04:25:15;;;;;;;6.65;3.90;;;-1.90;99.90;;;;;;4995706;28;20457;-81
2021/12/21 04:27:41;;;;;;;10.65;4.40;;;-1.90;99.90;;;;;;5010797;28;20121;-80
2021/12/21 04:30:07;;;;;;;7.18;4.30;;;-1.90;99.90;;;;;;5011666;28;20077;-81
2021/12/21 04:32:32;;;;;;;8.88;4.43;;;-1.90;99.90;;;;;;4993806;28;20124;-80
2021/12/21 04:34:58;;;;;;;10.48;4.50;;;-2.00;99.90;;;;;;5012484;28;20125;-81
2021/12/21 04:37:25;;;;;;;9.25;4.05;;;-2.00;99.90;;;;;;4994867;28;20049;-81
2021/12/21 04:40:03;;;;;;;7.10;4.15;;;-1.90;99.90;;;;;;5012096;28;20054;-81
2021/12/21 04:42:29;;;;;;;11.48;3.83;;;-2.00;99.90;;;;;;5011362;28;20069;-81
2021/12/21 04:44:55;;;;;;;8.13;4.57;;;-1.60;99.90;;;;;;4994526;28;20048;-81
2021/12/21 04:47:21;;;;;;;6.65;4.53;;;-2.00;99.90;;;;;;5010410;28;20045;-80
2021/12/21 04:49:46;;;;;;;9.48;4.53;;;-3.50;99.90;;;;;;5010976;28;20049;-80
2021/12/21 04:52:12;;;;;;;5.72;3.80;;;-1.60;99.90;;;;;;5011691;28;20131;-81
2021/12/21 04:54:39;;;;;;;7.80;4.72;;;-2.00;99.90;;;;;;5009746;28;20512;-80
2021/12/21 04:57:05;;;;;;;7.97;4.22;;;-2.00;99.90;;;;;;4994699;28;20037;-81
2021/12/21 04:59:31;;;;;;;7.80;3.88;;;-1.90;99.90;;;;;;5010261;28;20049;-81
2021/12/21 05:01:56;;;;;;;10.43;4.78;;;-2.00;99.90;;;;;;4994530;28;20429;-81
2021/12/21 05:04:22;;;;;;;6.90;3.45;;;-1.80;99.90;;;;;;4994315;28;20042;-80
2021/12/21 05:06:47;;;;;;;5.80;3.70;;;-2.10;99.90;;;;;;4992576;28;20081;-80
2021/12/21 05:09:23;;;;;;;8.57;3.78;;;-2.00;99.90;;;;;;4994020;28;20481;-81
2021/12/21 05:11:49;;;;;;;9.68;3.80;;;-2.00;99.90;;;;;;5010703;28;20053;-80
2021/12/21 05:14:14;;;;;;;8.27;4.40;;;-2.20;99.90;;;;;;5010551;28;20049;-81
2021/12/21 05:16:40;;;;;;;9.05;3.42;;;-2.00;99.90;;;;;;5025832;28;20042;-81
2021/12/21 05:19:06;;;;;;;8.75;4.13;;;-2.00;99.90;;;;;;5010485;28;20204;-80
2021/12/21 05:21:32;;;;;;;7.03;4.13;;;-2.10;99.90;;;;;;4994149;28;20037;-80
2021/12/21 05:23:58;;;;;;;7.88;4.22;;;-2.20;99.90;;;;;;4993352;28;20049;-81
2021/12/21 05:26:24;;;;;;;10.35;4.07;;;-2.20;99.90;;;;;;4994134;28;20036;-80
2021/12/21 05:28:49;;;;;;;6.60;3.60;;;-2.20;99.90;;;;;;5009473;28;20042;-81
2021/12/21 05:31:15;;;;;;;8.00;3.47;;;-2.10;99.90;;;;;;4994695;28;20030;-80
2021/12/21 05:33:41;;;;;;;6.43;3.78;;;-2.10;99.90;;;;;;4993527;28;20129;-80
2021/12/21 05:36:06;;;;;;;10.70;4.03;;;-0.10;99.90;;;;;;5010355;28;20045;-80
2021/12/21 05:38:34;;;;;;;4.25;3.80;;;-2.00;99.90;;;;;;4993437;28;20117;-80
2021/12/21 05:41:03;;;;;;;9.15;4.13;;;-2.20;99.90;;;;;;5010423;28;20042;-80
2021/12/21 05:43:29;;;;;;;10.52;4.93;;;-2.10;99.90;;;;;;5009718;28;20071;-79
2021/12/21 05:45:55;;;;;;;7.70;4.35;;;-2.20;99.90;;;;;;5010316;28;20409;-81
2021/12/21 05:48:21;;;;;;;6.00;3.72;;;-2.10;99.90;;;;;;5009810;28;20038;-80
2021/12/21 05:50:47;;;;;;;11.80;3.75;;;-1.80;99.90;;;;;;5010775;28;20041;-80
2021/12/21 05:53:12;;;;;;;4.88;3.28;;;-2.10;99.90;;;;;;4994102;28;20052;-80
2021/12/21 05:55:39;;;;;;;8.70;4.43;;;-2.10;99.90;;;;;;4993768;28;20555;-80
2021/12/21 05:58:06;;;;;;;8.38;4.00;;;-0.20;99.90;;;;;;5009522;28;20512;-80
2021/12/21 06:00:34;;;;;;;10.90;4.13;;;-2.00;99.90;;;;;;4993739;28;20038;-80
2021/12/21 06:03:00;;;;;;;8.02;4.03;;;-2.50;99.90;;;;;;5010002;28;20037;-80
2021/12/21 06:05:26;;;;;;;8.15;4.47;;;-2.10;99.90;;;;;;5009656;28;20042;-81
2021/12/21 06:07:53;;;;;;;12.80;4.43;;;-2.10;99.90;;;;;;4993575;28;20056;-80
2021/12/21 06:10:27;;;;;;;7.35;4.28;;;-0.40;99.90;;;;;;5010086;28;20048;-80
2021/12/21 06:15:39;;;;;;;6.82;3.63;;;-2.10;99.90;;;;;;5014093;28;20054;-80
2021/12/21 06:24:20;;;;;;;8.38;3.60;;;-2.30;99.90;;;;;;5013721;28;20088;-80
2021/12/21 06:26:27;;;;;;;6.57;3.95;;;-2.30;99.90;;;;;;5012965;28;20046;-80
2021/12/21 06:28:53;;;;;;;8.48;4.10;;;-2.30;99.90;;;;;;5014734;28;20130;-80
2021/12/21 06:31:19;;;;;;;10.20;4.03;;;-2.30;99.90;;;;;;5013665;28;20033;-80
2021/12/21 06:33:45;;;;;;;13.57;6.47;;;-2.30;99.90;;;;;;5012689;28;20050;-81
2021/12/21 06:36:11;;;;;;;8.65;5.30;;;-2.30;99.90;;;;;;5013868;28;20073;-80
2021/12/21 06:38:37;;;;;;;8.90;4.35;;;-0.30;99.90;;;;;;5013090;28;20046;-80
2021/12/21 06:41:03;;;;;;;7.88;3.90;;;-2.10;99.90;;;;;;5012977;28;20092;-80
2021/12/21 06:43:31;;;;;;;10.77;4.35;;;-2.40;99.90;;;;;;5013308;28;20040;-80
2021/12/21 06:46:12;;;;;;;6.75;4.22;;;-2.30;99.90;;;;;;5013926;28;20054;-81
2021/12/21 06:53:53;;;;;;;8.43;3.95;;;-0.50;99.90;;;;;;5012547;28;20054;-80
2021/12/21 06:56:20;;;;;;;8.18;4.28;;;-2.40;99.90;;;;;;5013519;28;20045;-81
2021/12/21 06:58:46;;;;;;;5.72;3.75;;;-2.50;99.90;;;;;;4996669;28;20092;-81
2021/12/21 07:01:13;;;;;;;12.30;4.20;;;-1.00;99.90;;;;;;4996488;28;20042;-81
2021/12/21 07:03:43;;;;;;;8.57;4.20;;;-2.40;99.90;;;;;;5012693;28;20512;-81
2021/12/21 07:06:09;;;;;;;7.88;3.88;;;-0.40;99.90;;;;;;4997155;28;20065;-81
2021/12/21 07:08:46;;;;;;;5.32;3.42;;;-2.40;99.90;;;;;;5011956;28;20046;-81
2021/12/21 07:11:30;;;;;;;8.23;3.50;;;-2.40;99.90;;;;;;4996901;28;20088;-81
2021/12/21 07:19:28;;;;;;;7.15;3.50;;;-2.40;99.90;;;;;;5012754;28;20045;-81
2021/12/21 07:21:53;;;;;;;8.20;3.88;;;-2.50;99.90;;;;;;5011520;28;20041;-81
2021/12/21 07:24:19;;;;;;;6.60;3.20;;;-2.50;99.90;;;;;;5012415;28;20124;-81
2021/12/21 07:26:45;;;;;;;8.68;4.07;;;-2.30;99.90;;;;;;4996109;28;20049;-81
2021/12/21 07:29:10;;;;;;;6.95;3.95;;;-2.40;99.90;;;;;;5013333;28;20034;-80
2021/12/21 07:31:37;;;;;;;14.35;4.38;;;-2.10;99.90;;;;;;5013657;28;20117;-80
2021/12/21 07:34:04;;;;;;;10.93;4.05;;;-2.90;99.90;;;;;;5029097;28;20113;-80
2021/12/21 07:36:31;;;;;;;11.27;4.38;;;-2.30;99.90;;;;;;5011833;28;20037;-80
2021/12/21 07:38:58;;;;;;;10.45;4.80;;;-2.50;99.90;;;;;;5012647;28;20493;-80
2021/12/21 07:41:24;;;;;;;12.75;4.32;;;-1.10;99.90;;;;;;4996075;28;20038;-80
2021/12/21 07:43:50;;;;;;;10.43;4.97;;;-2.60;99.90;;;;;;4994757;28;20141;-80
2021/12/21 07:46:16;;;;;;;9.00;4.68;;;-2.50;99.90;;;;;;4996067;28;20121;-80
2021/12/21 07:48:42;;;;;;;12.70;5.05;;;-2.50;99.90;;;;;;4995794;28;20045;-80
2021/12/21 07:51:09;;;;;;;11.63;4.55;;;-2.40;99.90;;;;;;4995608;28;20096;-80
2021/12/21 07:53:35;;;;;;;17.33;5.35;;;-2.40;99.90;;;;;;4995210;28;20046;-80
2021/12/21 07:56:04;;;;;;;9.57;5.25;;;-2.40;99.90;;;;;;5012527;28;20401;-80
2021/12/21 07:58:30;;;;;;;10.43;5.38;;;-2.40;99.90;;;;;;5010971;28;20072;-79
2021/12/21 08:00:58;;;;;;;8.27;5.47;;;-2.70;99.90;;;;;;5018159;28;20157;-80
2021/12/21 08:03:23;;;;;;;8.18;4.38;;;-1.60;99.90;;;;;;5003515;28;20406;-79
2021/12/21 08:05:53;;;;;;;11.93;4.50;;;-1.70;99.90;;;;;;5017142;28;20049;-80
2021/12/21 08:08:21;;;;;;;8.55;4.95;;;-1.70;99.90;;;;;;4995710;28;20367;-79
2021/12/21 08:10:54;;;;;;;11.75;4.07;;;-2.40;99.90;;;;;;5010858;28;20091;-79
2021/12/21 08:13:21;;;;;;;10.23;4.85;;;-2.40;99.90;;;;;;4997993;28;20120;-79
2021/12/21 08:15:47;;;;;;;9.23;5.03;;;-2.40;99.90;;;;;;4986066;28;20055;-79
2021/12/21 08:18:13;;;;;;;10.80;5.25;;;-2.50;99.90;;;;;;4990321;28;20430;-80
2021/12/21 08:20:39;;;;;;;9.18;5.18;;;-2.40;99.90;;;;;;5039870;28;20049;-80
2021/12/21 08:23:08;;;;;;;18.25;5.72;;;-2.40;99.90;;;;;;5004303;28;20482;-80
2021/12/21 08:25:36;;;;;;;10.30;6.20;;;-2.40;99.90;;;;;;5004465;28;20129;-80
2021/12/21 08:28:03;;;;;;;9.20;5.70;;;-2.30;99.90;;;;;;5012588;28;20081;-79
2021/12/21 08:30:29;;;;;;;11.88;6.40;;;-3.90;99.90;;;;;;5009211;28;20145;-80
2021/12/21 08:32:57;;;;;;;10.15;5.60;;;-2.30;99.90;;;;;;5024553;28;20580;-80
2021/12/21 08:35:23;;;;;;;9.57;5.25;;;-2.70;99.90;;;;;;5012496;28;20037;-80
2021/12/21 08:37:52;;;;;;;7.43;5.03;;;-2.40;99.90;;;;;;5010551;28;20069;-80
2021/12/21 08:40:22;;;;;;;10.55;5.60;;;-1.40;99.90;;;;;;5035599;28;20053;-79
2021/12/21 08:42:50;;;;;;;10.15;5.25;;;-2.50;99.90;;;;;;5010349;28;20049;-79
2021/12/21 08:45:16;;;;;;;10.02;5.95;;;-2.20;99.90;;;;;;5015011;28;20045;-78
2021/12/21 08:47:42;;;;;;;9.70;5.82;;;0.40;99.90;;;;;;5010150;28;20053;-78
2021/12/21 08:50:11;;;;;;;10.00;5.82;;;-2.40;99.90;;;;;;5010846;28;20053;-79
2021/12/21 08:52:37;;;;;;;21.02;7.72;;;;;;;;;;4993730;28;20038;-78
2021/12/21 08:55:06;;;;;;;15.60;7.65;;;-2.20;99.90;;;;;;4994131;28;20509;-78
2021/12/21 08:57:33;;;;;;;8.63;6.32;;;-2.10;99.90;;;;;;4986461;28;20041;-78
2021/12/21 08:59:59;;;;;;;12.60;7.00;;;-2.10;99.90;;;;;;4993333;28;20045;-79
2021/12/21 09:02:27;;;;;;;13.10;7.22;;;-2.20;99.90;;;;;;4993706;28;20042;-78
2021/12/21 09:04:53;;;;;;;15.13;9.23;;;-2.50;99.90;;;;;;4994350;28;20157;-79
2021/12/21 09:07:19;;;;;;;14.73;8.68;;;-2.10;99.90;;;;;;4983880;28;20421;-75
2021/12/21 09:09:44;;;;;;;14.52;8.02;;;-2.00;99.90;;;;;;4956803;28;20049;-80
2021/12/21 09:12:10;;;;;;;13.20;8.27;;;-2.10;99.90;;;;;;4991525;28;20090;-78
2021/12/21 09:14:36;;;;;;;15.32;8.15;;;-1.50;99.90;;;;;;4973363;28;20074;-81
2021/12/21 09:17:02;;;;;;;15.25;7.90;;;0.90;99.90;;;;;;4974694;28;20046;-78
2021/12/21 09:19:30;;;;;;;17.10;7.85;;;-1.90;99.90;;;;;;4975015;28;20057;-77
2021/12/21 09:21:55;;;;;;;14.70;7.63;;;-2.00;99.90;;;;;;4981870;28;20104;-75
2021/12/21 09:24:21;;;;;;;11.80;8.15;;;-1.80;99.90;;;;;;4990805;28;20042;-81
2021/12/21 09:26:47;;;;;;;24.95;8.77;;;-1.70;99.90;;;;;;4974273;28;20260;-76
2021/12/21 09:29:13;;;;;;;19.15;8.88;;;-1.80;99.90;;;;;;4980434;28;20107;-80
2021/12/21 09:31:38;;;;;;;13.05;8.73;;;-1.80;99.90;;;;;;4977618;28;20133;-79
2021/12/21 09:34:04;;;;;;;17.05;10.20;;;-1.80;99.90;;;;;;4999901;28;20042;-73
2021/12/21 09:36:30;;;;;;;17.38;11.45;;;-1.70;99.90;;;;;;4982889;28;20477;-74
2021/12/21 09:38:57;;;;;;;16.00;10.80;;;-1.60;99.90;;;;;;4983137;28;20473;-75
2021/12/21 09:41:23;;;;;;;21.48;11.65;;;-1.50;99.90;;;;;;4980433;28;20450;-75
2021/12/21 09:43:49;;;;;;;19.17;11.27;;;-1.50;99.90;;;;;;4974054;28;20053;-82
2021/12/21 09:46:15;;;;;;;18.15;11.27;;;-0.60;99.90;;;;;;4974476;28;20030;-79
2021/12/21 09:48:41;;;;;;;19.70;11.32;;;-1.20;99.90;;;;;;4972679;28;20502;-80
2021/12/21 09:51:07;;;;;;;19.88;12.05;;;-1.30;99.90;;;;;;4973779;28;20069;-80
2021/12/21 09:53:33;;;;;;;20.77;12.52;;;-0.80;99.90;;;;;;4990379;28;20046;-80
2021/12/21 09:56:03;;;;;;;19.88;10.68;;;-0.50;99.90;;;;;;4989954;28;20086;-79
2021/12/21 09:58:29;;;;;;;20.42;10.52;;;-1.60;99.90;;;;;;4989900;28;20042;-80
2021/12/21 10:00:55;;;;;;;20.35;10.50;;;-1.00;99.90;;;;;;4988383;28;20047;-77
2021/12/21 10:03:20;;;;;;;18.95;11.20;;;0.80;99.90;;;;;;4981308;28;20049;-78
2021/12/21 10:05:46;;;;;;;15.55;10.40;;;-1.00;99.90;;;;;;4976975;28;20053;-80
2021/12/21 10:08:16;;;;;;;22.98;11.77;;;-0.80;99.90;;;;;;4996020;28;20038;-79
2021/12/21 10:10:50;;;;;;;22.65;10.18;;;-0.70;99.90;;;;;;4978632;28;20041;-80
2021/12/21 10:13:23;;;;;;;21.47;11.00;;;-0.60;99.90;;;;;;5013245;28;20045;-79
2021/12/21 10:15:51;;;;;;;15.70;9.88;;;-0.50;99.90;;;;;;4990350;28;20097;-78
2021/12/21 10:18:31;;;;;;;19.00;9.73;;;1.30;99.90;;;;;;4981641;28;20046;-79
2021/12/21 10:21:00;;;;;;;16.92;11.15;;;-0.40;99.90;;;;;;4995345;28;20048;-79
2021/12/21 10:23:47;;;;;;;21.77;10.73;;;-0.10;99.90;;;;;;4989983;28;20046;-79
2021/12/21 10:26:25;;;;;;;14.82;9.48;;;-0.30;99.90;;;;;;4981929;28;20045;-79
2021/12/21 10:28:52;;;;;;;20.73;10.20;;;-0.30;99.90;;;;;;4989598;28;20843;-79
2021/12/21 10:31:27;;;;;;;17.92;8.73;;;-0.30;99.90;;;;;;4973796;28;20057;-80
2021/12/21 10:33:58;;;;;;;18.85;9.80;;;-0.20;99.90;;;;;;4989497;28;20054;-80
2021/12/21 10:36:26;;;;;;;15.68;8.95;;;-0.10;99.90;;;;;;4974287;28;20034;-80
2021/12/21 10:38:57;;;;;;;16.55;9.30;;;-0.10;99.90;;;;;;4998382;28;20470;-78
2021/12/21 10:41:52;;;;;;;18.50;9.80;;;0.00;99.90;;;;;;4978734;28;20089;-79
2021/12/21 10:44:19;;;;;;;20.00;9.75;;;0.00;99.90;;;;;;4977108;28;20116;-79
2021/12/21 10:46:48;;;;;;;17.60;8.90;;;0.00;99.90;;;;;;4994877;28;20050;-79
2021/12/21 10:49:17;;;;;;;13.95;8.07;;;0.00;99.90;;;;;;5004630;28;20046;-79
2021/12/21 10:51:55;;;;;;;13.45;8.45;;;0.50;99.90;;;;;;4972933;28;20042;-79
2021/12/21 10:54:33;;;;;;;14.05;9.50;;;0.40;99.90;;;;;;5015785;28;20042;-79
2021/12/21 10:57:01;;;;;;;16.08;9.65;;;0.20;99.90;;;;;;4974148;28;20038;-78
2021/12/21 10:59:31;;;;;;;11.88;8.60;;;0.20;99.90;;;;;;4963098;28;20050;-77
2021/12/21 11:02:14;;;;;;;21.10;8.05;;;0.60;99.90;;;;;;4989419;28;20129;-77
2021/12/21 11:04:51;;;;;;;17.98;8.07;;;0.30;99.90;;;;;;4985470;28;20559;-78
2021/12/21 11:07:27;;;;;;;12.88;6.70;;;-0.80;99.90;;;;;;4988289;28;20034;-77
2021/12/21 11:10:26;;;;;;;13.60;7.15;;;0.50;99.90;;;;;;4981446;28;20109;-79
2021/12/21 11:13:00;;;;;;;14.15;7.10;;;0.60;99.90;;;;;;4993183;28;20148;-80
2021/12/21 11:15:32;;;;;;;16.33;6.45;;;0.50;99.90;;;;;;5024626;28;20508;-80
2021/12/21 11:18:06;;;;;;;14.55;6.00;;;0.70;99.90;;;;;;4977740;28;20054;-80
2021/12/21 11:20:32;;;;;;;13.10;6.18;;;0.90;99.90;;;;;;4995464;28;20058;-79
2021/12/21 11:22:57;;;;;;;12.63;5.93;;;1.10;99.90;;;;;;4998104;28;20038;-80
2021/12/21 11:25:23;;;;;;;10.13;7.55;;;1.00;99.90;;;;;;4981998;28;20509;-80
2021/12/21 11:27:50;;;;;;;8.57;5.80;;;0.90;99.90;;;;;;4975805;28;20034;-79
2021/12/21 11:30:23;;;;;;;12.63;6.70;;;1.00;99.90;;;;;;4989598;28;20093;-79
2021/12/21 11:32:51;;;;;;;12.07;6.07;;;0.90;99.90;;;;;;4977601;28;20100;-80
2021/12/21 11:37:50;;;;;;;12.45;5.57;;;1.20;99.90;;;;;;4995335;28;20053;-78
2021/12/21 11:40:20;;;;;;;15.05;6.38;;;1.80;99.90;;;;;;4991792;28;20074;-78
2021/12/21 11:42:51;;;;;;;13.88;5.30;;;0.80;99.90;;;;;;4975522;28;20038;-78
2021/12/21 11:45:22;;;;;;;12.52;5.63;;;1.20;99.90;;;;;;4976233;28;20046;-77
2021/12/21 11:47:56;;;;;;;13.82;5.68;;;1.20;99.90;;;;;;4992543;28;20046;-77
2021/12/21 11:50:22;;;;;;;12.18;5.80;;;0.80;99.90;;;;;;4968196;28;20054;-77
2021/12/21 11:52:54;;;;;;;11.15;4.78;;;1.20;99.90;;;;;;4992390;28;20053;-78
2021/12/21 11:55:25;;;;;;;10.02;4.88;;;1.30;99.90;;;;;;4995841;28;20452;-80
2021/12/21 11:57:54;;;;;;;8.30;5.28;;;1.30;99.90;;;;;;4996366;28;20085;-78
2021/12/21 12:00:24;;;;;;;11.50;4.75;;;1.30;99.90;;;;;;4994410;28;20057;-81
2021/12/21 12:02:51;;;;;;;7.63;4.75;;;1.30;99.90;;;;;;4987610;28;20054;-78
2021/12/21 12:05:24;;;;;;;10.75;5.57;;;1.40;99.90;;;;;;5006873;28;20121;-79
2021/12/21 12:08:03;;;;;;;10.55;5.97;;;1.40;99.90;;;;;;5023387;28;20053;-80
2021/12/21 12:10:30;;;;;;;16.08;5.93;;;1.40;99.90;;;;;;4986552;28;20042;-79
2021/12/21 12:13:16;;;;;;;11.20;5.32;;;2.90;99.90;;;;;;5000001;28;20513;-78
2021/12/21 12:15:57;;;;;;;12.48;6.57;;;1.50;99.90;;;;;;5022632;28;20072;-78
2021/12/21 12:18:27;;;;;;;13.48;5.13;;;1.50;99.90;;;;;;5007548;28;20046;-79
2021/12/21 12:20:55;;;;;;;9.50;5.60;;;1.70;99.90;;;;;;4980485;28;20486;-78
2021/12/21 12:23:21;;;;;;;11.18;5.72;;;1.40;99.90;;;;;;4977690;28;20042;-78
2021/12/21 12:25:56;;;;;;;15.88;5.55;;;1.30;99.90;;;;;;4983389;28;20069;-78
2021/12/21 12:28:26;;;;;;;10.77;5.95;;;1.40;99.90;;;;;;5002918;28;20105;-79
2021/12/21 12:30:53;;;;;;;9.38;4.75;;;1.20;99.90;;;;;;5003391;28;20552;-79
2021/12/21 12:33:19;;;;;;;10.80;5.38;;;1.30;99.90;;;;;;4999681;28;20665;-79
2021/12/21 12:35:45;;;;;;;11.95;5.30;;;1.50;99.90;;;;;;5027328;28;20128;-79
2021/12/21 12:38:20;;;;;;;9.63;5.22;;;1.30;99.90;;;;;;4974865;28;20082;-78
2021/12/21 12:40:58;;;;;;;11.25;4.93;;;1.70;99.90;;;;;;4996847;28;20046;-78
2021/12/21 12:43:27;;;;;;;12.10;5.25;;;1.20;99.90;;;;;;4981989;28;20038;-79
2021/12/21 12:46:02;;;;;;;9.57;5.13;;;2.60;99.90;;;;;;4998225;28;20041;-79
2021/12/21 12:48:30;;;;;;;12.57;5.00;;;1.60;99.90;;;;;;4995453;28;20104;-78
2021/12/21 12:51:00;;;;;;;6.97;5.60;;;1.60;99.90;;;;;;4995580;28;20439;-78
2021/12/21 12:53:37;;;;;;;6.57;4.70;;;3.30;99.90;;;;;;4993861;28;20039;-78
2021/12/21 12:56:03;;;;;;;11.55;5.28;;;2.50;99.90;;;;;;5005745;28;20042;-78
2021/12/21 12:58:30;;;;;;;15.45;5.50;;;1.60;99.90;;;;;;5009783;28;20054;-78
2021/12/21 13:01:03;;;;;;;9.95;5.10;;;1.60;99.90;;;;;;4976246;28;20487;-78
2021/12/21 13:03:42;;;;;;;10.73;5.03;;;1.60;99.90;;;;;;4990965;28;20042;-79
2021/12/21 13:06:10;;;;;;;10.20;5.35;;;1.60;99.90;;;;;;5006752;28;20332;-79
2021/12/21 13:08:36;;;;;;;10.90;6.22;;;1.10;99.90;;;;;;4973517;28;20057;-79
2021/12/21 13:11:02;;;;;;;6.35;4.53;;;1.10;99.90;;;;;;4973195;28;20042;-79
2021/12/21 13:13:33;;;;;;;7.00;4.97;;;3.70;99.90;;;;;;4972444;28;20049;-80
2021/12/21 13:16:08;;;;;;;11.60;4.70;;;1.40;99.90;;;;;;4990762;28;20054;-79
2021/12/21 13:18:46;;;;;;;13.02;4.65;;;1.70;99.90;;;;;;5006069;28;20084;-78
2021/12/21 13:21:26;;;;;;;7.05;3.92;;;1.70;99.90;;;;;;4963734;28;20502;-79
2021/12/21 13:24:02;;;;;;;10.25;4.50;;;1.80;99.90;;;;;;4990141;28;20069;-79
2021/12/21 13:26:54;;;;;;;9.88;4.30;;;1.80;99.90;;;;;;4991181;28;20703;-79
2021/12/21 13:29:31;;;;;;;10.52;3.60;;;1.90;99.90;;;;;;4977635;28;20046;-79
2021/12/21 13:31:58;;;;;;;8.23;3.97;;;2.00;99.90;;;;;;5018494;28;20112;-79
2021/12/21 13:34:26;;;;;;;13.93;4.65;;;1.80;99.90;;;;;;4989606;28;20506;-79
2021/12/21 13:37:01;;;;;;;11.20;4.57;;;2.00;99.90;;;;;;4990510;28;20056;-79
2021/12/21 13:39:34;;;;;;;14.10;4.45;;;2.10;99.90;;;;;;4990770;28;20065;-77
2021/12/21 13:42:02;;;;;;;9.57;3.92;;;2.20;99.90;;;;;;4990290;28;20042;-79
2021/12/21 13:44:36;;;;;;;11.50;4.25;;;2.20;99.90;;;;;;4990496;28;20628;-77
2021/12/21 13:47:14;;;;;;;15.80;4.40;;;2.20;99.90;;;;;;4990552;28;20406;-78
2021/12/21 13:50:06;;;;;;;8.25;4.10;;;2.20;99.90;;;;;;4989861;28;20562;-79